sensor_id;sensor_type;location;lat;lon;timestamp;pressure;altitude;pressure_sealevel;temperature;humidity
48680;BME280;34475;51.658;5.634;2023-03-11T00:00:00;100480;;;0.6;100.0
48680;BME280;34475;51.658;5.634;2023-03-11T00:01:00;100480;;;0.6;100.0
48680;BME280;34475;51.658;5.634;2023-03-11T00:02:00;100480;;;0.6;100.0
48680;BME280;34475;51.658;5.634;2023-03-11T00:03:01;100480;;;0.6;100.0
48680;BME280;34475;51.658;5.634;2023-03-11T00:04:00;100480;;;0.5;100.0
48680;BME280;34475;51.658;5.634;2023-03-11T00:05:00;100480;;;0.5;100.0
48680;BME280;34475;51.658;5.634;2023-03-11T00:06:00;100490;;;0.5;100.0
48680;BME280;34475;51.658;5.634;2023-03-11T00:07:00;100490;;;0.5;100.0
48680;BME280;34475;51.658;5.634;2023-03-11T00:08:00;100490;;;0.4;100.0
48680;BME280;34475;51.658;5.634;2023-03-11T00:09:00;100490;;;0.4;100.0
48680;BME280;34475;51.658;5.634;2023-03-11T00:10:00;100490;;;0.4;100.0
48680;BME280;34475;51.658;5.634;2023-03-11T00:11:00;100490;;;0.4;100.0
48680;BME280;34475;51.658;5.634;2023-03-11T00:12:00;100490;;;0.3;100.0
48680;BME280;34475;51.658;5.634;2023-03-11T00:13:00;100490;;;0.3;100.0
48680;BME280;34475;51.658;5.634;2023-03-11T00:14:00;100500;;;0.4;100.0
48680;BME280;34475;51.658;5.634;2023-03-11T00:15:00;100500;;;0.4;100.0
48680;BME280;34475;51.658;5.634;2023-03-11T00:16:00;100500;;;0.2;100.0
48680;BME280;34475;51.658;5.634;2023-03-11T00:17:00;100500;;;0.2;100.0
48680;BME280;34475;51.658;5.634;2023-03-11T00:18:00;100500;;;0.3;100.0
48680;BME280;34475;51.658;5.634;2023-03-11T00:19:00;100500;;;0.3;100.0
48680;BME280;34475;51.658;5.634;2023-03-11T00:20:00;100500;;;0.3;100.0
48680;BME280;34475;51.658;5.634;2023-03-11T00:21:00;100500;;;0.3;100.0
48680;BME280;34475;51.658;5.634;2023-03-11T00:22:01;100500;;;0.3;100.0
48680;BME280;34475;51.658;5.634;2023-03-11T00:23:00;100500;;;0.3;100.0
48680;BME280;34475;51.658;5.634;2023-03-11T00:24:00;100500;;;0.3;100.0
48680;BME280;34475;51.658;5.634;2023-03-11T00:25:00;100500;;;0.3;100.0
48680;BME280;34475;51.658;5.634;2023-03-11T00:26:00;100500;;;0.2;100.0
48680;BME280;34475;51.658;5.634;2023-03-11T00:27:00;100500;;;0.2;100.0
48680;BME280;34475;51.658;5.634;2023-03-11T00:28:01;100500;;;0.2;100.0
48680;BME280;34475;51.658;5.634;2023-03-11T00:29:00;100500;;;0.2;100.0
48680;BME280;34475;51.658;5.634;2023-03-11T00:30:00;100510;;;0.2;100.0
48680;BME280;34475;51.658;5.634;2023-03-11T00:31:00;100510;;;0.2;100.0
48680;BME280;34475;51.658;5.634;2023-03-11T00:32:00;100510;;;0.0;100.0
48680;BME280;34475;51.658;5.634;2023-03-11T00:33:00;100510;;;0.0;100.0
48680;BME280;34475;51.658;5.634;2023-03-11T00:34:00;100510;;;0.1;100.0
48680;BME280;34475;51.658;5.634;2023-03-11T00:35:00;100510;;;0.1;100.0
48680;BME280;34475;51.658;5.634;2023-03-11T00:36:00;100510;;;0.2;100.0
48680;BME280;34475;51.658;5.634;2023-03-11T00:37:00;100510;;;0.2;100.0
48680;BME280;34475;51.658;5.634;2023-03-11T00:38:01;100510;;;0.2;100.0
48680;BME280;34475;51.658;5.634;2023-03-11T00:39:00;100510;;;0.2;100.0
48680;BME280;34475;51.658;5.634;2023-03-11T00:40:00;100520;;;0.1;100.0
48680;BME280;34475;51.658;5.634;2023-03-11T00:41:00;100520;;;0.1;100.0
48680;BME280;34475;51.658;5.634;2023-03-11T00:42:00;100520;;;0.1;100.0
48680;BME280;34475;51.658;5.634;2023-03-11T00:43:00;100520;;;0.1;100.0
48680;BME280;34475;51.658;5.634;2023-03-11T00:44:00;100530;;;0.1;100.0
48680;BME280;34475;51.658;5.634;2023-03-11T00:45:00;100530;;;0.1;100.0
48680;BME280;34475;51.658;5.634;2023-03-11T00:46:00;100530;;;0.0;100.0
48680;BME280;34475;51.658;5.634;2023-03-11T00:47:00;100530;;;0.0;100.0
48680;BME280;34475;51.658;5.634;2023-03-11T00:48:00;100530;;;0.0;100.0
48680;BME280;34475;51.658;5.634;2023-03-11T00:49:00;100530;;;0.0;100.0
48680;BME280;34475;51.658;5.634;2023-03-11T00:50:00;100530;;;0.0;100.0
48680;BME280;34475;51.658;5.634;2023-03-11T00:51:00;100530;;;0.0;100.0
48680;BME280;34475;51.658;5.634;2023-03-11T00:52:00;100530;;;-0.1;100.0
48680;BME280;34475;51.658;5.634;2023-03-11T00:53:00;100530;;;-0.1;100.0
48680;BME280;34475;51.658;5.634;2023-03-11T00:54:00;100530;;;-0.1;100.0
48680;BME280;34475;51.658;5.634;2023-03-11T00:55:00;100530;;;-0.1;100.0
48680;BME280;34475;51.658;5.634;2023-03-11T00:56:04;100530;;;0.0;100.0
48680;BME280;34475;51.658;5.634;2023-03-11T00:57:00;100530;;;0.0;100.0
48680;BME280;34475;51.658;5.634;2023-03-11T00:58:01;100530;;;-0.1;100.0
48680;BME280;34475;51.658;5.634;2023-03-11T00:59:00;100530;;;-0.1;100.0
48680;BME280;34475;51.658;5.634;2023-03-11T01:00:00;100530;;;-0.1;100.0
48680;BME280;34475;51.658;5.634;2023-03-11T01:01:08;100530;;;-0.1;100.0
48680;BME280;34475;51.658;5.634;2023-03-11T01:02:00;100530;;;-0.1;100.0
48680;BME280;34475;51.658;5.634;2023-03-11T01:03:00;100530;;;-0.1;100.0
48680;BME280;34475;51.658;5.634;2023-03-11T01:04:00;100540;;;-0.1;100.0
48680;BME280;34475;51.658;5.634;2023-03-11T01:05:00;100540;;;-0.1;100.0
48680;BME280;34475;51.658;5.634;2023-03-11T01:06:00;100540;;;-0.1;100.0
48680;BME280;34475;51.658;5.634;2023-03-11T01:07:00;100540;;;-0.1;100.0
48680;BME280;34475;51.658;5.634;2023-03-11T01:08:00;100540;;;-0.2;100.0
48680;BME280;34475;51.658;5.634;2023-03-11T01:09:00;100540;;;-0.2;100.0
48680;BME280;34475;51.658;5.634;2023-03-11T01:10:00;100540;;;-0.2;100.0
48680;BME280;34475;51.658;5.634;2023-03-11T01:11:00;100540;;;-0.2;100.0
48680;BME280;34475;51.658;5.634;2023-03-11T01:12:00;100540;;;-0.3;100.0
48680;BME280;34475;51.658;5.634;2023-03-11T01:13:00;100540;;;-0.3;100.0
48680;BME280;34475;51.658;5.634;2023-03-11T01:14:00;100540;;;-0.2;100.0
48680;BME280;34475;51.658;5.634;2023-03-11T01:15:00;100540;;;-0.2;100.0
48680;BME280;34475;51.658;5.634;2023-03-11T01:16:00;100550;;;-0.2;100.0
48680;BME280;34475;51.658;5.634;2023-03-11T01:17:00;100550;;;-0.2;100.0
48680;BME280;34475;51.658;5.634;2023-03-11T01:18:00;100560;;;-0.3;100.0
48680;BME280;34475;51.658;5.634;2023-03-11T01:19:00;100560;;;-0.3;100.0
48680;BME280;34475;51.658;5.634;2023-03-11T01:20:00;100560;;;-0.3;100.0
48680;BME280;34475;51.658;5.634;2023-03-11T01:21:00;100560;;;-0.3;100.0
48680;BME280;34475;51.658;5.634;2023-03-11T01:22:00;100570;;;-0.4;100.0
48680;BME280;34475;51.658;5.634;2023-03-11T01:23:00;100570;;;-0.4;100.0
48680;BME280;34475;51.658;5.634;2023-03-11T01:24:00;100570;;;-0.5;100.0
48680;BME280;34475;51.658;5.634;2023-03-11T01:25:00;100570;;;-0.5;100.0
48680;BME280;34475;51.658;5.634;2023-03-11T01:26:00;100570;;;-0.4;100.0
48680;BME280;34475;51.658;5.634;2023-03-11T01:27:00;100570;;;-0.4;100.0
48680;BME280;34475;51.658;5.634;2023-03-11T01:28:00;100570;;;-0.4;100.0
48680;BME280;34475;51.658;5.634;2023-03-11T01:29:00;100570;;;-0.4;100.0
48680;BME280;34475;51.658;5.634;2023-03-11T01:30:00;100570;;;-0.4;100.0
48680;BME280;34475;51.658;5.634;2023-03-11T01:31:00;100570;;;-0.4;100.0
48680;BME280;34475;51.658;5.634;2023-03-11T01:32:00;100570;;;-0.3;100.0
48680;BME280;34475;51.658;5.634;2023-03-11T01:33:00;100570;;;-0.3;100.0
48680;BME280;34475;51.658;5.634;2023-03-11T01:34:00;100570;;;-0.4;100.0
48680;BME280;34475;51.658;5.634;2023-03-11T01:35:00;100570;;;-0.4;100.0
48680;BME280;34475;51.658;5.634;2023-03-11T01:36:00;100580;;;-0.4;100.0
48680;BME280;34475;51.658;5.634;2023-03-11T01:37:02;100580;;;-0.4;100.0
48680;BME280;34475;51.658;5.634;2023-03-11T01:38:00;100580;;;-0.4;100.0
48680;BME280;34475;51.658;5.634;2023-03-11T01:39:00;100580;;;-0.4;100.0
48680;BME280;34475;51.658;5.634;2023-03-11T01:40:00;100580;;;-0.4;100.0
48680;BME280;34475;51.658;5.634;2023-03-11T01:41:00;100580;;;-0.4;100.0
48680;BME280;34475;51.658;5.634;2023-03-11T01:42:00;100580;;;-0.5;100.0
48680;BME280;34475;51.658;5.634;2023-03-11T01:43:00;100580;;;-0.5;100.0
48680;BME280;34475;51.658;5.634;2023-03-11T01:44:00;100580;;;-0.6;100.0
48680;BME280;34475;51.658;5.634;2023-03-11T01:45:00;100580;;;-0.6;100.0
48680;BME280;34475;51.658;5.634;2023-03-11T01:48:00;100580;;;-0.6;100.0
48680;BME280;34475;51.658;5.634;2023-03-11T01:49:00;100580;;;-0.6;100.0
48680;BME280;34475;51.658;5.634;2023-03-11T01:50:00;100590;;;-0.5;100.0
48680;BME280;34475;51.658;5.634;2023-03-11T01:51:00;100590;;;-0.5;100.0
48680;BME280;34475;51.658;5.634;2023-03-11T01:52:01;100580;;;-0.6;100.0
48680;BME280;34475;51.658;5.634;2023-03-11T01:53:00;100580;;;-0.6;100.0
48680;BME280;34475;51.658;5.634;2023-03-11T01:54:02;100580;;;-0.6;100.0
48680;BME280;34475;51.658;5.634;2023-03-11T01:55:00;100580;;;-0.6;100.0
48680;BME280;34475;51.658;5.634;2023-03-11T01:56:00;100590;;;-0.6;100.0
48680;BME280;34475;51.658;5.634;2023-03-11T01:57:00;100590;;;-0.6;100.0
48680;BME280;34475;51.658;5.634;2023-03-11T01:58:01;100590;;;-0.4;100.0
48680;BME280;34475;51.658;5.634;2023-03-11T01:59:00;100590;;;-0.4;100.0
48680;BME280;34475;51.658;5.634;2023-03-11T02:00:00;100590;;;-0.4;100.0
48680;BME280;34475;51.658;5.634;2023-03-11T02:01:00;100590;;;-0.4;100.0
48680;BME280;34475;51.658;5.634;2023-03-11T02:02:04;100580;;;-0.4;100.0
48680;BME280;34475;51.658;5.634;2023-03-11T02:03:01;100580;;;-0.4;100.0
48680;BME280;34475;51.658;5.634;2023-03-11T02:04:01;100590;;;-0.3;100.0
48680;BME280;34475;51.658;5.634;2023-03-11T02:05:00;100590;;;-0.3;100.0
48680;BME280;34475;51.658;5.634;2023-03-11T02:06:01;100580;;;-0.3;100.0
48680;BME280;34475;51.658;5.634;2023-03-11T02:07:00;100580;;;-0.3;100.0
48680;BME280;34475;51.658;5.634;2023-03-11T02:08:00;100580;;;-0.3;100.0
48680;BME280;34475;51.658;5.634;2023-03-11T02:09:00;100580;;;-0.3;100.0
48680;BME280;34475;51.658;5.634;2023-03-11T02:10:00;100590;;;-0.2;100.0
48680;BME280;34475;51.658;5.634;2023-03-11T02:11:01;100590;;;-0.2;100.0
48680;BME280;34475;51.658;5.634;2023-03-11T02:12:01;100580;;;-0.2;100.0
48680;BME280;34475;51.658;5.634;2023-03-11T02:13:01;100580;;;-0.2;100.0
48680;BME280;34475;51.658;5.634;2023-03-11T02:14:01;100580;;;-0.2;100.0
48680;BME280;34475;51.658;5.634;2023-03-11T02:15:00;100580;;;-0.2;100.0
48680;BME280;34475;51.658;5.634;2023-03-11T02:16:01;100580;;;-0.2;100.0
48680;BME280;34475;51.658;5.634;2023-03-11T02:17:00;100580;;;-0.2;100.0
48680;BME280;34475;51.658;5.634;2023-03-11T02:18:01;100590;;;-0.2;100.0
48680;BME280;34475;51.658;5.634;2023-03-11T02:19:03;100590;;;-0.2;100.0
48680;BME280;34475;51.658;5.634;2023-03-11T02:20:03;100590;;;-0.2;100.0
48680;BME280;34475;51.658;5.634;2023-03-11T02:21:03;100590;;;-0.2;100.0
48680;BME280;34475;51.658;5.634;2023-03-11T02:22:00;100590;;;-0.2;100.0
48680;BME280;34475;51.658;5.634;2023-03-11T02:23:00;100590;;;-0.2;100.0
48680;BME280;34475;51.658;5.634;2023-03-11T02:26:03;100590;;;-0.2;100.0
48680;BME280;34475;51.658;5.634;2023-03-11T02:27:00;100590;;;-0.2;100.0
48680;BME280;34475;51.658;5.634;2023-03-11T02:28:00;100590;;;-0.2;100.0
48680;BME280;34475;51.658;5.634;2023-03-11T02:29:00;100590;;;-0.2;100.0
48680;BME280;34475;51.658;5.634;2023-03-11T02:30:00;100590;;;-0.2;100.0
48680;BME280;34475;51.658;5.634;2023-03-11T02:31:00;100590;;;-0.2;100.0
48680;BME280;34475;51.658;5.634;2023-03-11T02:32:02;100600;;;-0.3;100.0
48680;BME280;34475;51.658;5.634;2023-03-11T02:33:00;100600;;;-0.3;100.0
48680;BME280;34475;51.658;5.634;2023-03-11T02:34:00;100600;;;-0.3;100.0
48680;BME280;34475;51.658;5.634;2023-03-11T02:35:00;100600;;;-0.3;100.0
48680;BME280;34475;51.658;5.634;2023-03-11T02:36:00;100600;;;-0.3;100.0
48680;BME280;34475;51.658;5.634;2023-03-11T02:37:03;100600;;;-0.3;100.0
48680;BME280;34475;51.658;5.634;2023-03-11T02:38:00;100600;;;-0.3;100.0
48680;BME280;34475;51.658;5.634;2023-03-11T02:39:00;100600;;;-0.3;100.0
48680;BME280;34475;51.658;5.634;2023-03-11T02:41:01;100600;;;-0.3;100.0
48680;BME280;34475;51.658;5.634;2023-03-11T02:42:01;100600;;;-0.4;100.0
48680;BME280;34475;51.658;5.634;2023-03-11T02:43:01;100600;;;-0.4;100.0
48680;BME280;34475;51.658;5.634;2023-03-11T02:44:00;100600;;;-0.3;100.0
48680;BME280;34475;51.658;5.634;2023-03-11T02:45:02;100600;;;-0.3;100.0
48680;BME280;34475;51.658;5.634;2023-03-11T02:46:00;100590;;;-0.3;100.0
48680;BME280;34475;51.658;5.634;2023-03-11T02:47:00;100590;;;-0.3;100.0
48680;BME280;34475;51.658;5.634;2023-03-11T02:48:00;100600;;;-0.3;100.0
48680;BME280;34475;51.658;5.634;2023-03-11T02:49:00;100600;;;-0.3;100.0
48680;BME280;34475;51.658;5.634;2023-03-11T02:50:00;100590;;;-0.3;100.0
48680;BME280;34475;51.658;5.634;2023-03-11T02:51:00;100590;;;-0.3;100.0
48680;BME280;34475;51.658;5.634;2023-03-11T02:52:00;100590;;;-0.3;100.0
48680;BME280;34475;51.658;5.634;2023-03-11T02:53:00;100590;;;-0.3;100.0
48680;BME280;34475;51.658;5.634;2023-03-11T02:54:01;100590;;;-0.3;100.0
48680;BME280;34475;51.658;5.634;2023-03-11T02:55:00;100590;;;-0.3;100.0
48680;BME280;34475;51.658;5.634;2023-03-11T02:56:00;100600;;;-0.2;100.0
48680;BME280;34475;51.658;5.634;2023-03-11T02:57:00;100600;;;-0.2;100.0
48680;BME280;34475;51.658;5.634;2023-03-11T02:58:00;100600;;;-0.3;100.0
48680;BME280;34475;51.658;5.634;2023-03-11T02:59:00;100600;;;-0.3;100.0
48680;BME280;34475;51.658;5.634;2023-03-11T03:00:00;100590;;;-0.3;100.0
48680;BME280;34475;51.658;5.634;2023-03-11T03:01:00;100590;;;-0.3;100.0
48680;BME280;34475;51.658;5.634;2023-03-11T03:02:00;100600;;;-0.3;100.0
48680;BME280;34475;51.658;5.634;2023-03-11T03:03:00;100600;;;-0.3;100.0
48680;BME280;34475;51.658;5.634;2023-03-11T03:04:00;100600;;;-0.4;100.0
48680;BME280;34475;51.658;5.634;2023-03-11T03:05:00;100600;;;-0.4;100.0
48680;BME280;34475;51.658;5.634;2023-03-11T03:06:00;100600;;;-0.4;100.0
48680;BME280;34475;51.658;5.634;2023-03-11T03:07:00;100600;;;-0.4;100.0
48680;BME280;34475;51.658;5.634;2023-03-11T03:08:00;100600;;;-0.4;100.0
48680;BME280;34475;51.658;5.634;2023-03-11T03:09:00;100600;;;-0.4;100.0
48680;BME280;34475;51.658;5.634;2023-03-11T03:10:00;100590;;;-0.3;100.0
48680;BME280;34475;51.658;5.634;2023-03-11T03:11:00;100590;;;-0.3;100.0
48680;BME280;34475;51.658;5.634;2023-03-11T03:12:00;100590;;;-0.4;100.0
48680;BME280;34475;51.658;5.634;2023-03-11T03:13:00;100590;;;-0.4;100.0
48680;BME280;34475;51.658;5.634;2023-03-11T03:14:00;100600;;;-0.4;100.0
48680;BME280;34475;51.658;5.634;2023-03-11T03:15:00;100600;;;-0.4;100.0
48680;BME280;34475;51.658;5.634;2023-03-11T03:16:00;100600;;;-0.4;100.0
48680;BME280;34475;51.658;5.634;2023-03-11T03:17:00;100600;;;-0.4;100.0
48680;BME280;34475;51.658;5.634;2023-03-11T03:18:00;100600;;;-0.4;100.0
48680;BME280;34475;51.658;5.634;2023-03-11T03:19:00;100600;;;-0.4;100.0
48680;BME280;34475;51.658;5.634;2023-03-11T03:20:00;100610;;;-0.4;100.0
48680;BME280;34475;51.658;5.634;2023-03-11T03:21:00;100610;;;-0.4;100.0
48680;BME280;34475;51.658;5.634;2023-03-11T03:22:00;100610;;;-0.5;100.0
48680;BME280;34475;51.658;5.634;2023-03-11T03:23:00;100610;;;-0.5;100.0
48680;BME280;34475;51.658;5.634;2023-03-11T03:24:00;100620;;;-0.5;100.0
48680;BME280;34475;51.658;5.634;2023-03-11T03:25:00;100620;;;-0.5;100.0
48680;BME280;34475;51.658;5.634;2023-03-11T03:26:00;100620;;;-0.5;100.0
48680;BME280;34475;51.658;5.634;2023-03-11T03:27:00;100620;;;-0.5;100.0
48680;BME280;34475;51.658;5.634;2023-03-11T03:28:00;100630;;;-0.5;100.0
48680;BME280;34475;51.658;5.634;2023-03-11T03:29:00;100630;;;-0.5;100.0
48680;BME280;34475;51.658;5.634;2023-03-11T03:30:00;100630;;;-0.4;100.0
48680;BME280;34475;51.658;5.634;2023-03-11T03:31:04;100630;;;-0.4;100.0
48680;BME280;34475;51.658;5.634;2023-03-11T03:32:00;100640;;;-0.4;100.0
48680;BME280;34475;51.658;5.634;2023-03-11T03:33:00;100640;;;-0.4;100.0
48680;BME280;34475;51.658;5.634;2023-03-11T03:34:00;100640;;;-0.5;100.0
48680;BME280;34475;51.658;5.634;2023-03-11T03:35:00;100640;;;-0.5;100.0
48680;BME280;34475;51.658;5.634;2023-03-11T03:36:00;100640;;;-0.5;100.0
48680;BME280;34475;51.658;5.634;2023-03-11T03:37:00;100640;;;-0.5;100.0
48680;BME280;34475;51.658;5.634;2023-03-11T03:38:00;100650;;;-0.5;100.0
48680;BME280;34475;51.658;5.634;2023-03-11T03:39:00;100650;;;-0.5;100.0
48680;BME280;34475;51.658;5.634;2023-03-11T03:40:00;100650;;;-0.6;100.0
48680;BME280;34475;51.658;5.634;2023-03-11T03:41:00;100650;;;-0.6;100.0
48680;BME280;34475;51.658;5.634;2023-03-11T03:42:00;100650;;;-0.5;100.0
48680;BME280;34475;51.658;5.634;2023-03-11T03:43:00;100650;;;-0.5;100.0
48680;BME280;34475;51.658;5.634;2023-03-11T03:44:00;100650;;;-0.5;100.0
48680;BME280;34475;51.658;5.634;2023-03-11T03:45:00;100650;;;-0.5;100.0
48680;BME280;34475;51.658;5.634;2023-03-11T03:46:01;100660;;;-0.5;100.0
48680;BME280;34475;51.658;5.634;2023-03-11T03:47:00;100660;;;-0.5;100.0
48680;BME280;34475;51.658;5.634;2023-03-11T03:48:00;100660;;;-0.5;100.0
48680;BME280;34475;51.658;5.634;2023-03-11T03:49:00;100660;;;-0.5;100.0
48680;BME280;34475;51.658;5.634;2023-03-11T03:50:01;100660;;;-0.5;100.0
48680;BME280;34475;51.658;5.634;2023-03-11T03:51:04;100660;;;-0.5;100.0
48680;BME280;34475;51.658;5.634;2023-03-11T03:52:00;100660;;;-0.6;100.0
48680;BME280;34475;51.658;5.634;2023-03-11T03:53:00;100660;;;-0.6;100.0
48680;BME280;34475;51.658;5.634;2023-03-11T03:54:00;100660;;;-0.6;100.0
48680;BME280;34475;51.658;5.634;2023-03-11T03:55:00;100660;;;-0.6;100.0
48680;BME280;34475;51.658;5.634;2023-03-11T03:56:04;100660;;;-0.6;100.0
48680;BME280;34475;51.658;5.634;2023-03-11T03:57:00;100660;;;-0.6;100.0
48680;BME280;34475;51.658;5.634;2023-03-11T03:58:00;100660;;;-0.6;100.0
48680;BME280;34475;51.658;5.634;2023-03-11T03:59:00;100660;;;-0.6;100.0
48680;BME280;34475;51.658;5.634;2023-03-11T04:00:00;100660;;;-0.6;100.0
48680;BME280;34475;51.658;5.634;2023-03-11T04:01:00;100660;;;-0.6;100.0
48680;BME280;34475;51.658;5.634;2023-03-11T04:02:00;100670;;;-0.7;100.0
48680;BME280;34475;51.658;5.634;2023-03-11T04:03:00;100670;;;-0.7;100.0
48680;BME280;34475;51.658;5.634;2023-03-11T04:04:00;100670;;;-0.6;100.0
48680;BME280;34475;51.658;5.634;2023-03-11T04:05:00;100670;;;-0.6;100.0
48680;BME280;34475;51.658;5.634;2023-03-11T04:06:08;100670;;;-0.6;100.0
48680;BME280;34475;51.658;5.634;2023-03-11T04:07:02;100670;;;-0.6;100.0
48680;BME280;34475;51.658;5.634;2023-03-11T04:08:00;100670;;;-0.7;100.0
48680;BME280;34475;51.658;5.634;2023-03-11T04:09:00;100670;;;-0.7;100.0
48680;BME280;34475;51.658;5.634;2023-03-11T04:10:00;100670;;;-0.7;100.0
48680;BME280;34475;51.658;5.634;2023-03-11T04:11:00;100670;;;-0.7;100.0
48680;BME280;34475;51.658;5.634;2023-03-11T04:12:00;100670;;;-0.7;100.0
48680;BME280;34475;51.658;5.634;2023-03-11T04:13:00;100670;;;-0.7;100.0
48680;BME280;34475;51.658;5.634;2023-03-11T04:14:00;100680;;;-0.7;100.0
48680;BME280;34475;51.658;5.634;2023-03-11T04:15:00;100680;;;-0.7;100.0
48680;BME280;34475;51.658;5.634;2023-03-11T04:16:02;100670;;;-0.8;100.0
48680;BME280;34475;51.658;5.634;2023-03-11T04:17:00;100670;;;-0.8;100.0
48680;BME280;34475;51.658;5.634;2023-03-11T04:18:00;100670;;;-0.8;100.0
48680;BME280;34475;51.658;5.634;2023-03-11T04:19:00;100670;;;-0.8;100.0
48680;BME280;34475;51.658;5.634;2023-03-11T04:20:00;100670;;;-0.9;100.0
48680;BME280;34475;51.658;5.634;2023-03-11T04:21:03;100670;;;-0.9;100.0
48680;BME280;34475;51.658;5.634;2023-03-11T04:22:00;100680;;;-0.8;100.0
48680;BME280;34475;51.658;5.634;2023-03-11T04:23:00;100680;;;-0.8;100.0
48680;BME280;34475;51.658;5.634;2023-03-11T04:24:00;100680;;;-0.8;100.0
48680;BME280;34475;51.658;5.634;2023-03-11T04:25:00;100680;;;-0.8;100.0
48680;BME280;34475;51.658;5.634;2023-03-11T04:26:00;100690;;;-0.9;100.0
48680;BME280;34475;51.658;5.634;2023-03-11T04:27:00;100690;;;-0.9;100.0
48680;BME280;34475;51.658;5.634;2023-03-11T04:28:00;100690;;;-0.9;100.0
48680;BME280;34475;51.658;5.634;2023-03-11T04:29:00;100690;;;-0.9;100.0
48680;BME280;34475;51.658;5.634;2023-03-11T04:30:00;100690;;;-0.9;100.0
48680;BME280;34475;51.658;5.634;2023-03-11T04:31:00;100690;;;-0.9;100.0
48680;BME280;34475;51.658;5.634;2023-03-11T04:32:00;100690;;;-0.9;100.0
48680;BME280;34475;51.658;5.634;2023-03-11T04:33:00;100690;;;-0.9;100.0
48680;BME280;34475;51.658;5.634;2023-03-11T04:34:00;100690;;;-0.9;100.0
48680;BME280;34475;51.658;5.634;2023-03-11T04:35:00;100690;;;-0.9;100.0
48680;BME280;34475;51.658;5.634;2023-03-11T04:36:03;100690;;;-0.9;100.0
48680;BME280;34475;51.658;5.634;2023-03-11T04:37:00;100690;;;-0.9;100.0
48680;BME280;34475;51.658;5.634;2023-03-11T04:38:00;100690;;;-0.9;100.0
48680;BME280;34475;51.658;5.634;2023-03-11T04:39:00;100690;;;-0.9;100.0
48680;BME280;34475;51.658;5.634;2023-03-11T04:40:00;100690;;;-0.9;100.0
48680;BME280;34475;51.658;5.634;2023-03-11T04:41:00;100690;;;-0.9;100.0
48680;BME280;34475;51.658;5.634;2023-03-11T04:42:00;100690;;;-0.9;100.0
48680;BME280;34475;51.658;5.634;2023-03-11T04:43:00;100690;;;-0.9;100.0
48680;BME280;34475;51.658;5.634;2023-03-11T04:44:00;100690;;;-1.0;100.0
48680;BME280;34475;51.658;5.634;2023-03-11T04:45:00;100690;;;-1.0;100.0
48680;BME280;34475;51.658;5.634;2023-03-11T04:46:00;100690;;;-1.1;100.0
48680;BME280;34475;51.658;5.634;2023-03-11T04:47:00;100690;;;-1.1;100.0
48680;BME280;34475;51.658;5.634;2023-03-11T04:48:00;100690;;;-1.0;100.0
48680;BME280;34475;51.658;5.634;2023-03-11T04:49:00;100690;;;-1.0;100.0
48680;BME280;34475;51.658;5.634;2023-03-11T04:50:00;100690;;;-1.0;100.0
48680;BME280;34475;51.658;5.634;2023-03-11T04:51:00;100690;;;-1.0;100.0
48680;BME280;34475;51.658;5.634;2023-03-11T04:52:00;100690;;;-1.0;100.0
48680;BME280;34475;51.658;5.634;2023-03-11T04:53:00;100690;;;-1.0;100.0
48680;BME280;34475;51.658;5.634;2023-03-11T04:54:00;100690;;;-1.1;100.0
48680;BME280;34475;51.658;5.634;2023-03-11T04:55:00;100690;;;-1.1;100.0
48680;BME280;34475;51.658;5.634;2023-03-11T04:56:00;100690;;;-1.0;100.0
48680;BME280;34475;51.658;5.634;2023-03-11T04:57:00;100690;;;-1.0;100.0
48680;BME280;34475;51.658;5.634;2023-03-11T04:58:00;100690;;;-1.1;100.0
48680;BME280;34475;51.658;5.634;2023-03-11T04:59:00;100690;;;-1.1;100.0
48680;BME280;34475;51.658;5.634;2023-03-11T05:00:00;100690;;;-1.1;100.0
48680;BME280;34475;51.658;5.634;2023-03-11T05:01:00;100690;;;-1.1;100.0
48680;BME280;34475;51.658;5.634;2023-03-11T05:02:00;100690;;;-1.1;100.0
48680;BME280;34475;51.658;5.634;2023-03-11T05:03:00;100690;;;-1.1;100.0
48680;BME280;34475;51.658;5.634;2023-03-11T05:04:00;100690;;;-1.1;100.0
48680;BME280;34475;51.658;5.634;2023-03-11T05:05:00;100690;;;-1.1;100.0
48680;BME280;34475;51.658;5.634;2023-03-11T05:06:00;100690;;;-1.1;100.0
48680;BME280;34475;51.658;5.634;2023-03-11T05:07:00;100690;;;-1.1;100.0
48680;BME280;34475;51.658;5.634;2023-03-11T05:08:00;100690;;;-1.1;100.0
48680;BME280;34475;51.658;5.634;2023-03-11T05:09:00;100690;;;-1.1;100.0
48680;BME280;34475;51.658;5.634;2023-03-11T05:10:00;100690;;;-1.2;100.0
48680;BME280;34475;51.658;5.634;2023-03-11T05:11:00;100690;;;-1.2;100.0
48680;BME280;34475;51.658;5.634;2023-03-11T05:12:00;100690;;;-1.2;100.0
48680;BME280;34475;51.658;5.634;2023-03-11T05:13:00;100690;;;-1.2;100.0
48680;BME280;34475;51.658;5.634;2023-03-11T05:14:00;100700;;;-1.2;100.0
48680;BME280;34475;51.658;5.634;2023-03-11T05:15:00;100700;;;-1.2;100.0
48680;BME280;34475;51.658;5.634;2023-03-11T05:16:00;100700;;;-1.2;100.0
48680;BME280;34475;51.658;5.634;2023-03-11T05:17:00;100700;;;-1.2;100.0
48680;BME280;34475;51.658;5.634;2023-03-11T05:18:00;100700;;;-1.2;100.0
48680;BME280;34475;51.658;5.634;2023-03-11T05:19:00;100700;;;-1.2;100.0
48680;BME280;34475;51.658;5.634;2023-03-11T05:20:00;100710;;;-1.3;100.0
48680;BME280;34475;51.658;5.634;2023-03-11T05:21:00;100710;;;-1.3;100.0
48680;BME280;34475;51.658;5.634;2023-03-11T05:22:01;100710;;;-1.3;100.0
48680;BME280;34475;51.658;5.634;2023-03-11T05:23:00;100710;;;-1.3;100.0
48680;BME280;34475;51.658;5.634;2023-03-11T05:24:00;100720;;;-1.3;100.0
48680;BME280;34475;51.658;5.634;2023-03-11T05:25:00;100720;;;-1.3;100.0
48680;BME280;34475;51.658;5.634;2023-03-11T05:26:00;100720;;;-1.3;100.0
48680;BME280;34475;51.658;5.634;2023-03-11T05:27:00;100720;;;-1.3;100.0
48680;BME280;34475;51.658;5.634;2023-03-11T05:28:00;100720;;;-1.3;100.0
48680;BME280;34475;51.658;5.634;2023-03-11T05:29:00;100720;;;-1.3;100.0
48680;BME280;34475;51.658;5.634;2023-03-11T05:30:00;100730;;;-1.3;100.0
48680;BME280;34475;51.658;5.634;2023-03-11T05:31:00;100730;;;-1.3;100.0
48680;BME280;34475;51.658;5.634;2023-03-11T05:32:00;100720;;;-1.3;100.0
48680;BME280;34475;51.658;5.634;2023-03-11T05:33:00;100720;;;-1.3;100.0
48680;BME280;34475;51.658;5.634;2023-03-11T05:34:00;100720;;;-1.4;100.0
48680;BME280;34475;51.658;5.634;2023-03-11T05:35:00;100720;;;-1.4;100.0
48680;BME280;34475;51.658;5.634;2023-03-11T05:36:04;100710;;;-1.4;100.0